Time;durP1;ratioP1;P1;durP2;ratioP2;P2;SDS_P1;SDS_P2;PMS_P1;PMS_P2;Temp;Humidity;BMP_temperature;BMP_pressure;BME280_temperature;BME280_humidity;BME280_pressure;Samples;Min_cycle;Max_cycle;Signal;HPM_P1;HPM_P2
2022/09/21 00:01:26;;;;;;;9.52;5.32;;;;;;;4.11;100.00;95126.16;5087740;27;20595;-73
2022/09/21 00:03:55;;;;;;;6.60;4.97;;;;;;;4.15;100.00;95127.38;5106891;27;20056;-73
2022/09/21 00:06:25;;;;;;;6.90;4.95;;;;;;;4.02;100.00;95108.22;5083126;28;20047;-74
2022/09/21 00:08:53;;;;;;;6.03;4.88;;;;;;;4.17;100.00;95130.56;5093877;27;20043;-73
2022/09/21 00:11:26;;;;;;;5.85;4.60;;;;;;;4.17;100.00;95125.41;5106799;27;20039;-74
2022/09/21 00:13:59;;;;;;;8.77;5.00;;;;;;;4.18;100.00;95132.16;5112582;27;20042;-73
2022/09/21 00:16:27;;;;;;;6.75;5.38;;;;;;;4.14;100.00;95120.59;5108001;27;20067;-73
2022/09/21 00:18:55;;;;;;;6.40;4.38;;;;;;;4.01;100.00;95104.03;5076950;27;20122;-72
2022/09/21 00:21:22;;;;;;;7.45;4.35;;;;;;;4.05;100.00;95106.25;5087605;28;20043;-74
2022/09/21 00:23:49;;;;;;;6.15;4.18;;;;;;;4.15;100.00;95124.78;5102289;27;20043;-73
2022/09/21 00:26:19;;;;;;;6.10;4.70;;;;;;;4.17;100.00;95115.09;5101600;27;20034;-72
2022/09/21 00:28:48;;;;;;;6.18;4.72;;;;;;;4.19;100.00;95124.22;5080519;27;20043;-73
2022/09/21 00:31:16;;;;;;;5.38;4.28;;;;;;;3.98;100.00;95104.41;5108011;27;20073;-73
2022/09/21 00:33:43;;;;;;;7.30;4.18;;;;;;;4.07;100.00;95119.75;5080853;28;20047;-74
2022/09/21 00:36:15;;;;;;;6.13;3.78;;;;;;;4.01;100.00;95124.66;5082136;27;20044;-74
2022/09/21 00:38:44;;;;;;;8.02;4.03;;;;;;;3.94;100.00;95110.91;5079595;27;20031;-73
2022/09/21 00:41:12;;;;;;;5.65;4.05;;;;;;;3.75;100.00;95101.19;5105517;27;20043;-73
2022/09/21 00:43:45;;;;;;;6.07;4.50;;;;;;;3.76;100.00;95113.91;5106074;27;20118;-74
2022/09/21 00:46:20;;;;;;;5.18;3.92;;;;;;;3.72;100.00;95114.44;5103358;27;20809;-73
2022/09/21 00:48:47;;;;;;;6.05;3.85;;;;;;;3.79;100.00;95123.03;5082648;27;20568;-73
2022/09/21 00:51:14;;;;;;;7.53;4.50;;;;;;;3.83;100.00;95119.09;5082129;27;20031;-73
2022/09/21 00:53:42;;;;;;;5.85;4.47;;;;;;;3.77;100.00;95115.47;5098380;27;20054;-73
2022/09/21 00:56:11;;;;;;;4.70;3.97;;;;;;;3.76;100.00;95118.22;5102904;27;20566;-72
2022/09/21 00:58:43;;;;;;;6.05;4.15;;;;;;;3.67;100.00;95109.00;5098477;27;20047;-73
2022/09/21 01:01:14;;;;;;;5.50;3.97;;;;;;;3.54;100.00;95105.31;5094914;27;20044;-74
2022/09/21 01:03:44;;;;;;;5.30;4.30;;;;;;;3.58;100.00;95116.84;5080948;27;20060;-73
2022/09/21 01:06:12;;;;;;;6.60;4.55;;;;;;;3.56;100.00;95112.84;5100600;27;20035;-74
2022/09/21 01:08:41;;;;;;;6.45;4.90;;;;;;;3.62;100.00;95123.25;5100739;27;20043;-73
2022/09/21 01:11:34;;;;;;;7.60;4.55;;;;;;;3.63;100.00;95104.22;5101987;27;20035;-74
2022/09/21 01:14:20;;;;;;;5.70;4.57;;;;;;;3.61;100.00;95111.31;5106515;27;20050;-73
2022/09/21 01:17:13;;;;;;;7.18;5.25;;;;;;;3.73;100.00;95118.63;5101100;27;20032;-74
2022/09/21 01:19:46;;;;;;;7.25;5.70;;;;;;;3.69;100.00;95112.19;5077838;28;20663;-74
2022/09/21 01:22:36;;;;;;;6.43;5.13;;;;;;;3.61;100.00;95108.75;5104469;27;20039;-73
2022/09/21 01:25:25;;;;;;;5.32;4.55;;;;;;;3.58;100.00;95101.41;5057685;27;20095;-73
2022/09/21 01:28:15;;;;;;;7.85;5.15;;;;;;;3.56;100.00;95108.50;5102541;27;20126;-73
2022/09/21 01:30:43;;;;;;;6.28;4.97;;;;;;;3.43;100.00;95098.03;5082189;27;20761;-74
2022/09/21 01:33:22;;;;;;;6.28;4.95;;;;;;;3.30;100.00;95095.31;5101838;27;20036;-74
2022/09/21 01:35:55;;;;;;;;;;;;;;;3.27;100.00;95083.59;5069354;28;20138;-73
2022/09/21 01:38:30;;;;;;;9.57;5.03;;;;;;;3.23;100.00;95088.28;5100562;27;19953;-73
2022/09/21 01:41:01;;;;;;;7.05;4.45;;;;;;;3.21;100.00;95084.31;5077815;27;20698;-73
2022/09/21 01:43:37;;;;;;;8.55;5.65;;;;;;;3.27;100.00;95085.38;5100002;27;20054;-74
2022/09/21 01:46:09;;;;;;;7.90;5.13;;;;;;;3.33;100.00;95082.06;5081575;27;20053;-74
2022/09/21 01:48:40;;;;;;;8.88;6.55;;;;;;;3.39;100.00;95094.25;5076683;28;20055;-73
2022/09/21 01:51:11;;;;;;;9.07;6.80;;;;;;;3.30;100.00;95077.28;5118636;27;20189;-73
2022/09/21 01:53:43;;;;;;;9.60;6.15;;;;;;;3.40;100.00;95088.09;5075639;28;20046;-73
2022/09/21 01:56:14;;;;;;;6.78;5.10;;;;;;;3.47;100.00;95099.28;5080368;27;20043;-74
2022/09/21 01:58:53;;;;;;;8.70;5.00;;;;;;;3.50;100.00;95104.06;5097377;27;20047;-74
2022/09/21 02:01:24;;;;;;;8.27;6.00;;;;;;;3.53;100.00;95108.06;5082605;28;20127;-73
2022/09/21 02:03:59;;;;;;;10.80;5.97;;;;;;;3.57;100.00;95099.78;5095197;27;20048;-74
2022/09/21 02:06:28;;;;;;;8.15;5.90;;;;;;;3.42;100.00;95092.09;5082333;27;20148;-73
2022/09/21 02:08:56;;;;;;;8.02;5.75;;;;;;;3.31;100.00;95094.31;5081339;28;20035;-74
2022/09/21 02:11:23;;;;;;;9.40;5.20;;;;;;;3.22;100.00;95097.00;5088150;28;20749;-74
2022/09/21 02:13:53;;;;;;;6.85;4.50;;;;;;;3.13;100.00;95102.41;5078508;28;20092;-73
2022/09/21 02:16:29;;;;;;;7.20;4.55;;;;;;;3.03;100.00;95108.63;5102291;27;20035;-73
2022/09/21 02:19:23;;;;;;;6.28;4.40;;;;;;;2.96;100.00;95101.78;5097038;27;20036;-73
2022/09/21 02:21:56;;;;;;;6.47;4.90;;;;;;;2.86;100.00;95105.41;5100981;27;20122;-74
2022/09/21 02:24:31;;;;;;;6.03;4.65;;;;;;;2.79;100.00;95107.09;5076801;27;20122;-73
2022/09/21 02:27:05;;;;;;;7.82;5.00;;;;;;;2.69;100.00;95106.53;5085956;27;20049;-73
2022/09/21 02:29:53;;;;;;;6.10;4.72;;;;;;;2.67;100.00;95113.63;5085032;27;20047;-74
2022/09/21 02:32:34;;;;;;;6.15;5.07;;;;;;;2.64;100.00;95113.97;5080825;28;20042;-74
2022/09/21 02:35:07;;;;;;;7.50;5.32;;;;;;;2.63;100.00;95107.25;5065339;28;20056;-74
2022/09/21 02:37:43;;;;;;;7.00;5.65;;;;;;;2.55;100.00;95095.25;5096710;27;20042;-73
2022/09/21 02:40:49;;;;;;;7.32;4.97;;;;;;;2.53;100.00;95088.69;5076952;28;20130;-73
2022/09/21 02:43:29;;;;;;;6.35;5.25;;;;;;;2.70;100.00;95102.19;5048651;27;20062;-73
2022/09/21 02:46:05;;;;;;;7.50;5.28;;;;;;;2.63;100.00;95096.97;5062910;27;20040;-74
2022/09/21 02:48:37;;;;;;;6.28;4.82;;;;;;;2.71;100.00;95104.59;5096848;28;20764;-73
2022/09/21 02:51:10;;;;;;;8.90;4.53;;;;;;;2.73;100.00;95105.22;5097841;27;20056;-74
2022/09/21 02:53:40;;;;;;;5.15;4.15;;;;;;;2.80;100.00;95103.53;5101055;28;20163;-73
2022/09/21 02:56:10;;;;;;;7.68;4.90;;;;;;;2.77;100.00;95093.59;5099331;28;20047;-73
2022/09/21 02:58:42;;;;;;;5.60;4.35;;;;;;;2.75;100.00;95098.13;5077084;28;20050;-74
2022/09/21 03:01:11;;;;;;;5.95;4.05;;;;;;;2.74;100.00;95103.44;5101239;28;20623;-73
2022/09/21 03:03:38;;;;;;;5.78;4.72;;;;;;;2.77;100.00;95103.88;5088149;28;20046;-75
2022/09/21 03:06:05;;;;;;;4.90;4.30;;;;;;;2.77;100.00;95103.88;5083269;28;20020;-73
2022/09/21 03:08:32;;;;;;;6.47;4.05;;;;;;;2.70;100.00;95090.13;5097989;28;20095;-74
2022/09/21 03:10:59;;;;;;;5.10;4.18;;;;;;;2.65;100.00;95097.59;5100688;28;20221;-74
2022/09/21 03:13:26;;;;;;;5.20;4.28;;;;;;;2.66;100.00;95092.25;5076009;28;20508;-73
2022/09/21 03:16:01;;;;;;;4.90;4.00;;;;;;;2.76;100.00;95107.44;5101085;27;20038;-73
2022/09/21 03:18:29;;;;;;;4.50;3.33;;;;;;;2.72;100.00;95108.78;5080884;27;20150;-74
2022/09/21 03:20:56;;;;;;;6.07;4.15;;;;;;;2.69;100.00;95106.53;5103926;27;20657;-73
2022/09/21 03:23:24;;;;;;;5.35;4.20;;;;;;;2.65;100.00;95100.94;5100689;27;20731;-73
2022/09/21 03:25:51;;;;;;;5.50;3.97;;;;;;;2.44;100.00;95088.75;5086046;28;20047;-74
2022/09/21 03:28:18;;;;;;;6.40;4.32;;;;;;;2.51;100.00;95108.63;5081898;28;20109;-74
2022/09/21 03:30:48;;;;;;;7.72;4.90;;;;;;;2.52;100.00;95099.94;5090121;27;20055;-74
2022/09/21 03:33:17;;;;;;;6.38;4.82;;;;;;;2.54;100.00;95103.13;5085359;27;20039;-74
2022/09/21 03:35:49;;;;;;;7.68;3.88;;;;;;;2.45;100.00;95099.84;5103628;27;20039;-74
2022/09/21 03:38:17;;;;;;;6.65;4.78;;;;;;;2.52;100.00;95110.22;5080140;27;20047;-74
2022/09/21 03:40:45;;;;;;;5.22;4.30;;;;;;;2.34;100.00;95098.50;5082403;28;20130;-72
2022/09/21 03:43:12;;;;;;;5.55;4.38;;;;;;;2.40;100.00;95108.06;5108362;27;20052;-72
2022/09/21 03:45:42;;;;;;;5.18;4.38;;;;;;;2.42;100.00;95102.75;5105707;27;20051;-74
2022/09/21 03:48:11;;;;;;;11.57;5.18;;;;;;;2.47;100.00;95114.13;5106838;27;20122;-73
2022/09/21 03:50:38;;;;;;;8.02;5.20;;;;;;;2.35;100.00;95100.06;5082940;27;20812;-72
2022/09/21 03:53:06;;;;;;;7.28;5.07;;;;;;;2.43;100.00;95122.34;5087035;28;20039;-73
2022/09/21 03:55:33;;;;;;;8.85;5.93;;;;;;;2.29;100.00;95093.06;5082569;27;20124;-72
2022/09/21 03:58:00;;;;;;;7.50;5.28;;;;;;;2.31;100.00;95100.59;5068275;27;20096;-73
2022/09/21 04:00:28;;;;;;;8.15;5.18;;;;;;;2.37;100.00;95118.69;5084161;27;20043;-73
2022/09/21 04:02:55;;;;;;;7.82;4.68;;;;;;;2.26;100.00;95111.41;5072665;28;20043;-73
2022/09/21 04:05:22;;;;;;;17.83;4.75;;;;;;;2.19;100.00;95110.47;5064516;28;20514;-73
2022/09/21 04:07:49;;;;;;;8.15;4.95;;;;;;;2.25;100.00;95120.06;5069874;28;20586;-72
2022/09/21 04:10:20;;;;;;;10.70;5.10;;;;;;;2.26;100.00;95121.66;5068661;28;20052;-73
2022/09/21 04:12:47;;;;;;;6.45;4.50;;;;;;;2.22;100.00;95115.28;5070104;28;20156;-73
2022/09/21 04:15:18;;;;;;;9.18;5.18;;;;;;;2.27;100.00;95128.41;5070984;28;20097;-74
2022/09/21 04:17:45;;;;;;;5.72;4.53;;;;;;;2.27;100.00;95123.28;5057174;28;20156;-74
2022/09/21 04:20:12;;;;;;;7.10;5.40;;;;;;;2.12;100.00;95130.91;5059304;28;20044;-73
2022/09/21 04:22:39;;;;;;;9.82;5.70;;;;;;;2.16;100.00;95139.06;5069227;28;20113;-73
2022/09/21 04:25:10;;;;;;;10.60;6.72;;;;;;;2.02;100.00;95115.72;5059991;28;20040;-74
2022/09/21 04:27:38;;;;;;;12.27;8.27;;;;;;;2.19;100.00;95134.41;5043402;28;20107;-74
2022/09/21 04:30:05;;;;;;;9.32;7.20;;;;;;;2.16;100.00;95128.81;5063955;28;20044;-74
2022/09/21 04:32:32;;;;;;;11.88;6.03;;;;;;;2.12;100.00;95114.69;5062963;28;20531;-75
2022/09/21 04:34:59;;;;;;;10.00;6.95;;;;;;;2.34;100.00;95142.19;5073024;28;20036;-74
2022/09/21 04:37:26;;;;;;;11.90;8.05;;;;;;;2.43;100.00;95138.59;5061094;28;20029;-74
2022/09/21 04:39:53;;;;;;;16.00;6.80;;;;;;;2.49;100.00;95137.88;5050901;28;20044;-74
2022/09/21 04:42:20;;;;;;;7.43;6.18;;;;;;;2.68;100.00;95140.94;5067186;28;20725;-74
2022/09/21 04:44:47;;;;;;;8.13;5.32;;;;;;;2.80;100.00;95144.69;5066565;28;20555;-74
2022/09/21 04:47:15;;;;;;;10.77;7.55;;;;;;;2.79;100.00;95127.69;5051350;28;20048;-74
2022/09/21 04:49:43;;;;;;;17.15;10.60;;;;;;;3.06;100.00;95149.44;5064162;28;20079;-73
2022/09/21 04:52:11;;;;;;;16.63;7.25;;;;;;;3.18;100.00;95142.06;5071804;28;20063;-74
2022/09/21 04:54:44;;;;;;;8.57;6.85;;;;;;;3.27;100.00;95140.22;5064606;28;20048;-75
2022/09/21 04:57:18;;;;;;;10.85;6.65;;;;;;;3.48;100.00;95147.22;5075201;28;20032;-74
2022/09/21 04:59:58;;;;;;;9.68;7.13;;;;;;;3.63;100.00;95145.44;5075252;28;20102;-74
2022/09/21 05:02:25;;;;;;;10.77;7.47;;;;;;;3.76;100.00;95144.00;5084780;28;20055;-73
2022/09/21 05:04:52;;;;;;;10.23;6.40;;;;;;;3.82;100.00;95132.97;5075115;28;20131;-73
2022/09/21 05:07:19;;;;;;;9.23;6.53;;;;;;;4.01;100.00;95142.69;5077357;28;20123;-73
2022/09/21 05:10:04;;;;;;;10.27;6.68;;;;;;;4.24;100.00;95146.09;5071745;28;20209;-73
2022/09/21 05:12:32;;;;;;;9.45;7.05;;;;;;;4.35;100.00;95133.50;5101608;27;20043;-74
2022/09/21 05:14:59;;;;;;;8.77;6.88;;;;;;;4.66;100.00;95145.28;5071660;28;20719;-72
2022/09/21 05:17:26;;;;;;;14.90;8.02;;;;;;;4.83;100.00;95155.38;5075794;28;20040;-71
2022/09/21 05:19:53;;;;;;;11.77;6.63;;;;;;;4.97;100.00;95136.41;5075959;28;20074;-72
2022/09/21 05:22:20;;;;;;;9.68;7.45;;;;;;;5.15;100.00;95141.88;5076543;28;20833;-73
2022/09/21 05:24:47;;;;;;;11.82;8.05;;;;;;;5.40;100.00;95145.78;5069790;28;20162;-74
2022/09/21 05:27:15;;;;;;;11.00;7.30;;;;;;;5.62;100.00;95146.50;5070631;28;20217;-75
2022/09/21 05:29:42;;;;;;;12.63;7.30;;;;;;;5.77;100.00;95142.00;5078981;28;20151;-74
2022/09/21 05:32:17;;;;;;;10.45;7.63;;;;;;;6.05;100.00;95149.69;5057530;28;20599;-74
2022/09/21 05:34:51;;;;;;;11.30;8.05;;;;;;;6.19;100.00;95140.16;5074124;28;20105;-74
2022/09/21 05:37:43;;;;;;;11.68;7.38;;;;;;;6.45;100.00;95143.81;5068245;28;20127;-74
2022/09/21 05:40:11;;;;;;;9.70;6.97;;;;;;;6.70;100.00;95146.63;5053210;28;20141;-74
2022/09/21 05:42:39;;;;;;;8.80;6.20;;;;;;;6.80;100.00;95128.09;5077002;28;20032;-73
2022/09/21 05:45:07;;;;;;;8.18;6.18;;;;;;;6.95;100.00;95144.22;5058310;28;20150;-74
2022/09/21 05:48:04;;;;;;;11.85;5.63;;;;;;;7.06;100.00;95130.66;5083857;28;20255;-73
2022/09/21 05:50:40;;;;;;;10.82;6.13;;;;;;;7.21;100.00;95142.59;5075652;28;20051;-73
2022/09/21 05:53:28;;;;;;;6.95;4.45;;;;;;;7.36;100.00;95132.78;5073723;28;20054;-73
2022/09/21 05:55:59;;;;;;;6.65;4.78;;;;;;;7.46;100.00;95130.59;5078930;28;20036;-72
2022/09/21 05:58:40;;;;;;;11.57;5.90;;;;;;;7.52;100.00;95143.72;5075152;28;20039;-73
2022/09/21 06:01:39;;;;;;;10.63;6.13;;;;;;;7.57;100.00;95130.97;5063084;28;20505;-72
2022/09/21 06:04:11;;;;;;;8.63;6.22;;;;;;;7.62;100.00;95144.13;5072849;28;20316;-73
2022/09/21 06:06:38;;;;;;;5.72;4.40;;;;;;;7.59;100.00;95142.72;5077366;28;20744;-70
2022/09/21 06:09:05;;;;;;;8.20;5.03;;;;;;;7.68;100.00;95138.09;5074184;28;20148;-72
2022/09/21 06:11:32;;;;;;;11.50;5.13;;;;;;;7.82;100.00;95144.03;5076818;28;20042;-71
2022/09/21 06:14:01;;;;;;;7.90;5.03;;;;;;;7.77;100.00;95142.06;5073134;28;20036;-71
2022/09/21 06:16:39;;;;;;;6.68;4.75;;;;;;;7.76;100.00;95155.22;5075978;28;20040;-71
2022/09/21 06:19:09;;;;;;;6.30;4.50;;;;;;;7.94;100.00;95151.97;5100227;27;20070;-71
2022/09/21 06:21:36;;;;;;;8.27;5.20;;;;;;;7.94;100.00;95141.59;5077509;28;20817;-71
2022/09/21 06:24:03;;;;;;;6.50;4.40;;;;;;;7.93;100.00;95150.38;5076479;28;20052;-71
2022/09/21 06:26:30;;;;;;;7.22;5.28;;;;;;;8.01;100.00;95147.53;5077373;28;20102;-71
2022/09/21 06:28:57;;;;;;;5.70;4.78;;;;;;;8.29;100.00;95159.41;5079889;28;20070;-72
2022/09/21 06:31:26;;;;;;;5.72;4.25;;;;;;;8.27;100.00;95156.22;5074979;28;20059;-73
2022/09/21 06:33:52;;;;;;;10.77;4.68;;;;;;;8.37;100.00;95146.97;5079276;28;20040;-72
2022/09/21 06:36:19;;;;;;;6.07;4.00;;;;;;;8.53;100.00;95156.06;5075824;28;20039;-72
2022/09/21 06:38:46;;;;;;;6.50;4.00;;;;;;;8.62;100.00;95164.41;5078375;28;20063;-72
2022/09/21 06:41:13;;;;;;;9.95;5.78;;;;;;;8.73;100.00;95168.13;5074736;28;20713;-72
2022/09/21 06:43:46;;;;;;;6.55;4.78;;;;;;;8.74;100.00;95156.75;5079100;28;20075;-73
2022/09/21 06:46:13;;;;;;;6.15;4.70;;;;;;;9.03;100.00;95164.91;5077121;28;20590;-72
2022/09/21 06:48:40;;;;;;;5.82;4.57;;;;;;;9.16;100.00;95160.41;5079191;28;20048;-73
2022/09/21 06:51:07;;;;;;;6.60;3.88;;;;;;;9.44;100.00;95173.97;5080263;28;20073;-72
2022/09/21 06:53:34;;;;;;;6.88;4.20;;;;;;;9.47;100.00;95155.31;5076013;28;20044;-73
2022/09/21 06:56:05;;;;;;;6.82;3.70;;;;;;;9.66;100.00;95169.91;5073862;28;20051;-73
2022/09/21 06:58:33;;;;;;;4.93;4.18;;;;;;;9.70;100.00;95171.06;5073365;28;20043;-74
2022/09/21 07:01:05;;;;;;;11.20;5.15;;;;;;;9.71;100.00;95151.84;5069799;28;20053;-72
2022/09/21 07:03:33;;;;;;;7.78;3.45;;;;;;;9.98;100.00;95171.59;5060795;28;20105;-73
2022/09/21 07:06:00;;;;;;;4.63;3.10;;;;;;;9.93;100.00;95159.22;5054924;28;20045;-72
2022/09/21 07:08:27;;;;;;;5.78;3.53;;;;;;;10.13;100.00;95180.59;5040941;28;20253;-72
2022/09/21 07:11:15;;;;;;;6.20;3.60;;;;;;;10.23;100.00;95179.28;5064405;28;20087;-72
2022/09/21 07:13:41;;;;;;;4.15;3.08;;;;;;;10.18;100.00;95159.13;5044439;28;20659;-73
2022/09/21 07:16:09;;;;;;;4.10;3.20;;;;;;;10.30;100.00;95180.00;5067196;28;20499;-72
2022/09/21 07:18:38;;;;;;;9.68;4.32;;;;;;;10.33;100.00;95163.94;5067326;28;20048;-73
2022/09/21 07:21:10;;;;;;;3.28;2.50;;;;;;;10.22;100.00;95172.47;5066346;28;20040;-72
2022/09/21 07:23:37;;;;;;;2.88;2.50;;;;;;;10.19;100.00;95180.72;5067100;28;20048;-73
2022/09/21 07:26:12;;;;;;;3.15;2.33;;;;;;;10.31;100.00;95174.56;5064339;28;20129;-73
2022/09/21 07:28:39;;;;;;;2.58;2.30;;;;;;;10.23;100.00;95168.88;5056395;28;20485;-74
2022/09/21 07:31:11;;;;;;;3.60;2.30;;;;;;;10.33;100.00;95164.75;5067474;28;20044;-72
2022/09/21 07:33:37;;;;;;;3.33;2.78;;;;;;;10.57;100.00;95164.03;5064582;28;20044;-72
2022/09/21 07:36:09;;;;;;;4.68;2.20;;;;;;;10.59;100.00;95151.56;5067473;28;20076;-72
2022/09/21 07:38:38;;;;;;;9.45;3.00;;;;;;;10.78;100.00;95155.69;5063776;28;20060;-73
2022/09/21 07:41:12;;;;;;;3.67;1.98;;;;;;;10.85;100.00;95177.22;5069584;28;20040;-75
2022/09/21 07:43:40;;;;;;;;;;;;;;;10.68;100.00;95171.09;5070734;28;20044;-73
2022/09/21 07:46:09;;;;;;;3.95;2.53;;;;;;;10.62;100.00;95169.38;5067816;28;20403;-72
2022/09/21 07:48:36;;;;;;;7.90;3.67;;;;;;;10.58;100.00;95178.66;5071600;28;20100;-74
2022/09/21 07:51:09;;;;;;;5.25;3.28;;;;;;;10.51;100.00;95156.09;5071013;28;20051;-74
2022/09/21 07:53:38;;;;;;;3.83;2.77;;;;;;;10.55;100.00;95171.28;5066336;28;20540;-74
2022/09/21 07:56:08;;;;;;;2.97;2.08;;;;;;;10.64;100.00;95169.94;5064191;28;20094;-74
2022/09/21 08:01:23;;;;;;;8.57;2.38;;;;;;;10.94;100.00;95163.91;5064185;28;20049;-73
2022/09/21 08:03:51;;;;;;;3.58;2.13;;;;;;;10.93;98.57;95157.91;5088920;28;20059;-73
2022/09/21 08:06:19;;;;;;;3.15;2.00;;;;;;;10.76;98.73;95155.13;5080737;28;20052;-73
2022/09/21 08:08:47;;;;;;;4.50;2.58;;;;;;;10.92;98.70;95165.94;5085452;28;20047;-73
2022/09/21 08:11:16;;;;;;;3.55;1.80;;;;;;;10.93;98.47;95157.09;5080461;28;20035;-73
2022/09/21 08:13:43;;;;;;;4.88;2.53;;;;;;;11.09;98.75;95169.44;5082758;28;20521;-73
2022/09/21 08:16:10;;;;;;;2.22;1.98;;;;;;;11.23;99.35;95157.78;5079226;28;21600;-74
2022/09/21 08:18:38;;;;;;;3.85;2.10;;;;;;;11.57;98.16;95163.22;5085115;28;20093;-74
2022/09/21 08:21:07;;;;;;;1.83;1.58;;;;;;;11.67;97.50;95163.44;5085053;28;20044;-73
2022/09/21 08:23:39;;;;;;;4.00;2.08;;;;;;;11.72;96.36;95152.34;5081394;28;20059;-74
2022/09/21 08:26:06;;;;;;;3.42;2.33;;;;;;;11.71;96.33;95152.56;5085223;28;20040;-74
2022/09/21 08:28:37;;;;;;;5.72;2.10;;;;;;;11.79;96.04;95160.81;5080969;28;20048;-74
2022/09/21 08:31:09;;;;;;;2.78;1.95;;;;;;;11.94;95.63;95168.19;5082519;28;20837;-74
2022/09/21 08:33:36;;;;;;;2.40;1.70;;;;;;;12.14;94.63;95153.97;5059656;28;20050;-74
2022/09/21 08:36:03;;;;;;;6.60;2.47;;;;;;;12.32;95.68;95155.59;5077224;28;20047;-74
2022/09/21 08:38:35;;;;;;;3.30;1.92;;;;;;;12.50;93.38;95154.63;5082876;28;20036;-74
2022/09/21 08:41:13;;;;;;;3.25;1.70;;;;;;;12.57;92.27;95150.03;5080962;28;20040;-73
2022/09/21 08:43:43;;;;;;;4.63;2.17;;;;;;;12.63;91.41;95144.63;5079456;28;20039;-73
2022/09/21 08:46:14;;;;;;;2.60;2.38;;;;;;;12.77;91.28;95155.59;5078974;28;20044;-73
2022/09/21 08:48:48;;;;;;;2.55;1.55;;;;;;;13.08;89.83;95150.06;5076322;28;20052;-73
2022/09/21 08:51:22;;;;;;;2.75;1.65;;;;;;;13.09;81.75;95152.44;5082021;28;20044;-73
2022/09/21 08:53:55;;;;;;;2.78;1.65;;;;;;;13.12;79.48;95146.72;5078141;28;20540;-74
2022/09/21 08:56:24;;;;;;;3.22;1.98;;;;;;;13.10;79.59;95143.56;5081294;28;20170;-73
2022/09/21 08:59:14;;;;;;;4.93;1.90;;;;;;;13.10;79.84;95133.09;5077330;28;20535;-74
2022/09/21 09:02:21;;;;;;;4.75;1.92;;;;;;;13.31;77.21;95133.44;5081768;28;20039;-74
2022/09/21 09:05:10;;;;;;;2.20;1.90;;;;;;;13.34;76.97;95146.00;5058020;27;20524;-74
2022/09/21 09:07:46;;;;;;;8.55;1.65;;;;;;;13.17;78.23;95138.94;5100954;27;20504;-74
2022/09/21 09:10:26;;;;;;;2.55;1.50;;;;;;;13.53;76.50;95131.63;5062807;28;20126;-74
2022/09/21 09:13:03;;;;;;;2.45;1.90;;;;;;;13.70;75.90;95136.03;5100727;27;20559;-73
2022/09/21 09:15:55;;;;;;;2.30;1.35;;;;;;;13.80;73.71;95123.06;5078855;27;20612;-74
2022/09/21 09:18:32;;;;;;;5.00;1.80;;;;;;;13.71;73.55;95124.53;5080387;27;20071;-74
2022/09/21 09:21:10;;;;;;;5.28;2.03;;;;;;;13.70;74.28;95120.31;5096396;27;20048;-73
2022/09/21 09:23:45;;;;;;;5.05;1.63;;;;;;;13.80;74.32;95120.47;5099978;27;20746;-73
2022/09/21 09:26:29;;;;;;;;;;;;;;;13.92;72.62;95118.50;5097890;27;20095;-74
2022/09/21 09:29:13;;;;;;;2.55;1.60;;;;;;;13.92;70.60;95108.03;5114911;27;19929;-73
2022/09/21 09:31:40;;;;;;;3.30;1.70;;;;;;;14.15;69.98;95100.94;5098033;27;20047;-74
2022/09/21 09:34:15;;;;;;;3.83;1.40;;;;;;;13.84;69.77;95092.75;5106350;27;20484;-74
2022/09/21 09:36:49;;;;;;;1.67;1.05;;;;;;;13.71;65.99;95111.44;5076714;28;20465;-73
2022/09/21 09:39:28;;;;;;;3.90;1.20;;;;;;;13.85;68.11;95107.44;5099750;27;20031;-74
2022/09/21 09:42:01;;;;;;;1.67;0.90;;;;;;;14.29;65.61;95096.88;5078436;27;20047;-73
2022/09/21 09:45:02;;;;;;;1.20;0.75;;;;;;;14.60;61.47;95106.91;5103283;27;20459;-74
2022/09/21 09:48:01;;;;;;;1.33;0.90;;;;;;;14.03;62.73;95084.59;5076408;28;20046;-73
2022/09/21 09:50:32;;;;;;;1.50;0.75;;;;;;;14.21;64.30;95086.88;5098558;27;20031;-72
2022/09/21 09:53:14;;;;;;;2.22;0.80;;;;;;;14.17;65.07;95062.22;5082081;27;20126;-73
2022/09/21 09:55:46;;;;;;;1.38;0.82;;;;;;;14.31;64.45;95079.13;5102347;27;20058;-74
2022/09/21 09:58:33;;;;;;;4.65;1.30;;;;;;;14.42;61.91;95063.47;5089714;27;20047;-74
2022/09/21 10:01:00;;;;;;;2.03;0.73;;;;;;;14.54;62.48;95045.75;5069530;27;20055;-73
2022/09/21 10:03:27;;;;;;;1.83;1.00;;;;;;;15.15;62.39;95070.88;5076491;28;20047;-74
2022/09/21 10:05:54;;;;;;;2.22;0.98;;;;;;;15.13;61.45;95072.94;5086354;28;20051;-74
2022/09/21 10:08:38;;;;;;;1.20;0.80;;;;;;;15.40;56.85;95078.88;5083900;28;20039;-74
2022/09/21 10:11:05;;;;;;;17.38;5.55;;;;;;;15.21;55.51;95064.59;5078042;28;20159;-73
2022/09/21 10:13:34;;;;;;;4.15;1.17;;;;;;;15.25;53.48;95060.41;5080804;28;20052;-75
2022/09/21 10:16:13;;;;;;;1.30;0.88;;;;;;;15.08;54.32;95066.59;5080639;28;20036;-74
2022/09/21 10:19:00;;;;;;;2.20;0.90;;;;;;;15.11;55.75;95065.34;5079082;28;20124;-74
2022/09/21 10:21:36;;;;;;;2.08;1.33;;;;;;;15.15;55.23;95068.25;5077583;28;20040;-74
2022/09/21 10:24:13;;;;;;;1.90;0.95;;;;;;;15.56;53.08;95050.09;5078360;28;20047;-73
2022/09/21 10:26:47;;;;;;;4.85;1.52;;;;;;;15.95;54.06;95057.56;5081954;28;20052;-75
2022/09/21 10:29:24;;;;;;;2.45;1.10;;;;;;;15.60;53.98;95053.75;5080248;28;20124;-74
2022/09/21 10:32:00;;;;;;;1.33;0.80;;;;;;;16.07;54.65;95050.25;5077358;28;20039;-75
2022/09/21 10:34:29;;;;;;;3.90;1.42;;;;;;;16.13;56.12;95043.94;5076533;28;20028;-75
2022/09/21 10:36:59;;;;;;;2.03;1.02;;;;;;;15.84;55.40;95031.28;5063421;28;20058;-75
2022/09/21 10:39:28;;;;;;;2.13;1.40;;;;;;;16.00;53.67;95047.09;5079262;28;20040;-74
2022/09/21 10:42:06;;;;;;;2.35;1.02;;;;;;;15.73;55.13;95034.13;5077270;28;20043;-73
2022/09/21 10:44:42;;;;;;;2.15;1.52;;;;;;;15.91;53.83;95046.00;5081175;28;20151;-73
2022/09/21 10:47:31;;;;;;;7.63;1.05;;;;;;;15.89;53.30;95048.13;5075907;28;20134;-74
2022/09/21 10:50:02;;;;;;;5.35;0.90;;;;;;;16.15;52.16;95049.75;5077895;28;20123;-73
2022/09/21 10:52:39;;;;;;;2.80;1.42;;;;;;;16.20;51.56;95033.97;5078352;28;20199;-69
2022/09/21 10:55:15;;;;;;;0.93;0.65;;;;;;;16.32;50.32;95046.09;5081951;28;20562;-67
2022/09/21 10:57:43;;;;;;;1.73;1.08;;;;;;;16.23;47.78;95049.22;5077323;28;20048;-68
2022/09/21 11:00:22;;;;;;;1.10;0.57;;;;;;;16.87;47.68;95041.94;5078985;28;20101;-68
2022/09/21 11:02:49;;;;;;;3.67;0.80;;;;;;;17.03;43.01;95039.25;5074698;28;20052;-67
2022/09/21 11:05:24;;;;;;;1.17;0.38;;;;;;;17.03;41.72;95039.25;5078806;28;20058;-66
2022/09/21 11:08:05;;;;;;;0.82;0.47;;;;;;;16.75;42.63;95033.47;5074548;28;20045;-68
2022/09/21 11:10:39;;;;;;;3.10;0.50;;;;;;;17.08;41.01;95026.09;5081857;28;20044;-68
2022/09/21 11:13:31;;;;;;;1.20;0.30;;;;;;;17.32;40.83;95023.66;5074312;28;20129;-67
2022/09/21 11:16:21;;;;;;;1.35;0.60;;;;;;;17.44;43.38;95018.09;5080009;28;20146;-68
2022/09/21 11:19:01;;;;;;;3.55;0.85;;;;;;;17.44;42.60;95023.34;5076148;28;20181;-68
2022/09/21 11:21:54;;;;;;;1.05;0.70;;;;;;;17.39;42.89;95026.78;5078927;28;20060;-68
2022/09/21 11:24:53;;;;;;;1.98;0.90;;;;;;;17.29;42.62;95011.81;5046154;28;20051;-67
2022/09/21 11:27:30;;;;;;;1.88;0.40;;;;;;;17.69;42.13;95020.59;5082076;28;20138;-67
2022/09/21 11:30:11;;;;;;;1.00;0.60;;;;;;;18.15;41.90;95023.03;5077668;28;20053;-67
2022/09/21 11:33:03;;;;;;;1.90;0.60;;;;;;;17.96;39.87;95024.72;5077670;28;20117;-67
2022/09/21 11:35:42;;;;;;;0.75;0.32;;;;;;;17.95;39.64;95017.88;5076168;28;20051;-67
2022/09/21 11:38:16;;;;;;;1.02;0.75;;;;;;;17.63;40.97;95016.44;5078394;28;20067;-68
2022/09/21 11:41:12;;;;;;;1.60;0.50;;;;;;;17.36;42.55;95027.34;5079660;28;20070;-67
2022/09/21 11:43:54;;;;;;;3.50;1.02;;;;;;;16.82;49.11;95015.59;5080538;28;20055;-67
2022/09/21 11:46:53;;;;;;;2.05;0.40;;;;;;;16.43;50.50;95021.38;5083367;28;20097;-68
2022/09/21 11:49:43;;;;;;;0.80;0.50;;;;;;;15.91;53.05;95035.50;5040722;28;20080;-68
2022/09/21 11:52:36;;;;;;;0.85;0.60;;;;;;;15.42;54.98;95040.03;5087161;28;20075;-66
2022/09/21 11:55:25;;;;;;;1.17;0.70;;;;;;;14.93;56.86;95045.53;5082237;28;20048;-67
2022/09/21 11:58:14;;;;;;;3.35;1.02;;;;;;;14.68;58.76;95052.19;5087038;28;20138;-68
2022/09/21 12:01:04;;;;;;;1.98;0.47;;;;;;;15.48;57.13;95054.78;5082892;28;20086;-67
2022/09/21 12:03:57;;;;;;;1.88;0.43;;;;;;;16.38;53.99;95061.59;5016857;28;20068;-65